sensor_id;sensor_type;location;lat;lon;timestamp;P1;durP1;ratioP1;P2;durP2;ratioP2
37937;SDS011;23763;48.130;11.602;2023-05-14T00:01:13;13.13;;;10.80;;
37937;SDS011;23763;48.130;11.602;2023-05-14T00:03:39;13.90;;;11.25;;
37937;SDS011;23763;48.130;11.602;2023-05-14T00:06:05;12.65;;;10.88;;
37937;SDS011;23763;48.130;11.602;2023-05-14T00:08:32;12.38;;;10.93;;
37937;SDS011;23763;48.130;11.602;2023-05-14T00:10:57;13.02;;;11.18;;
37937;SDS011;23763;48.130;11.602;2023-05-14T00:13:24;12.20;;;10.95;;
37937;SDS011;23763;48.130;11.602;2023-05-14T00:15:50;12.52;;;11.23;;
37937;SDS011;23763;48.130;11.602;2023-05-14T00:18:15;12.40;;;11.00;;
37937;SDS011;23763;48.130;11.602;2023-05-14T00:20:41;13.32;;;10.60;;
37937;SDS011;23763;48.130;11.602;2023-05-14T00:23:07;15.38;;;10.88;;
37937;SDS011;23763;48.130;11.602;2023-05-14T00:25:32;12.38;;;10.45;;
37937;SDS011;23763;48.130;11.602;2023-05-14T00:27:58;13.57;;;11.15;;
37937;SDS011;23763;48.130;11.602;2023-05-14T00:30:24;10.98;;;9.88;;
37937;SDS011;23763;48.130;11.602;2023-05-14T00:32:49;12.35;;;11.05;;
37937;SDS011;23763;48.130;11.602;2023-05-14T00:35:15;13.32;;;10.48;;
37937;SDS011;23763;48.130;11.602;2023-05-14T00:37:40;11.98;;;10.73;;
37937;SDS011;23763;48.130;11.602;2023-05-14T00:40:06;11.82;;;10.63;;
37937;SDS011;23763;48.130;11.602;2023-05-14T00:42:32;12.73;;;10.25;;
37937;SDS011;23763;48.130;11.602;2023-05-14T00:44:58;14.23;;;10.20;;
37937;SDS011;23763;48.130;11.602;2023-05-14T00:47:24;11.57;;;10.35;;
37937;SDS011;23763;48.130;11.602;2023-05-14T00:49:50;12.02;;;10.82;;
37937;SDS011;23763;48.130;11.602;2023-05-14T00:52:16;13.25;;;11.10;;
37937;SDS011;23763;48.130;11.602;2023-05-14T00:54:42;13.23;;;11.65;;
37937;SDS011;23763;48.130;11.602;2023-05-14T00:57:10;12.23;;;10.45;;
37937;SDS011;23763;48.130;11.602;2023-05-14T00:59:36;11.40;;;9.82;;
37937;SDS011;23763;48.130;11.602;2023-05-14T01:02:04;12.80;;;10.88;;
37937;SDS011;23763;48.130;11.602;2023-05-14T01:04:30;13.07;;;11.68;;
37937;SDS011;23763;48.130;11.602;2023-05-14T01:07:08;13.90;;;12.15;;
37937;SDS011;23763;48.130;11.602;2023-05-14T01:09:54;14.77;;;11.10;;
37937;SDS011;23763;48.130;11.602;2023-05-14T01:12:29;15.40;;;11.15;;
37937;SDS011;23763;48.130;11.602;2023-05-14T01:15:04;11.85;;;10.57;;
37937;SDS011;23763;48.130;11.602;2023-05-14T01:17:31;13.18;;;10.90;;
37937;SDS011;23763;48.130;11.602;2023-05-14T01:20:01;13.55;;;11.07;;
37937;SDS011;23763;48.130;11.602;2023-05-14T01:22:27;13.18;;;11.10;;
37937;SDS011;23763;48.130;11.602;2023-05-14T01:24:53;12.98;;;11.20;;
37937;SDS011;23763;48.130;11.602;2023-05-14T01:27:29;12.73;;;10.50;;
37937;SDS011;23763;48.130;11.602;2023-05-14T01:30:04;13.73;;;11.70;;
37937;SDS011;23763;48.130;11.602;2023-05-14T01:32:32;12.02;;;10.70;;
37937;SDS011;23763;48.130;11.602;2023-05-14T01:34:58;12.05;;;10.15;;
37937;SDS011;23763;48.130;11.602;2023-05-14T01:37:25;12.95;;;10.63;;
37937;SDS011;23763;48.130;11.602;2023-05-14T01:39:52;11.93;;;10.20;;
37937;SDS011;23763;48.130;11.602;2023-05-14T01:42:19;14.50;;;10.50;;
37937;SDS011;23763;48.130;11.602;2023-05-14T01:44:46;12.88;;;10.77;;
37937;SDS011;23763;48.130;11.602;2023-05-14T01:47:11;12.73;;;10.60;;
37937;SDS011;23763;48.130;11.602;2023-05-14T01:49:37;11.50;;;10.07;;
37937;SDS011;23763;48.130;11.602;2023-05-14T01:52:02;12.05;;;10.15;;
37937;SDS011;23763;48.130;11.602;2023-05-14T01:54:28;12.52;;;10.60;;
37937;SDS011;23763;48.130;11.602;2023-05-14T01:56:54;14.70;;;10.90;;
37937;SDS011;23763;48.130;11.602;2023-05-14T01:59:20;10.80;;;9.48;;
37937;SDS011;23763;48.130;11.602;2023-05-14T02:01:45;11.13;;;9.90;;
37937;SDS011;23763;48.130;11.602;2023-05-14T02:04:11;12.65;;;10.05;;
37937;SDS011;23763;48.130;11.602;2023-05-14T02:06:37;11.30;;;10.02;;
37937;SDS011;23763;48.130;11.602;2023-05-14T02:09:02;11.40;;;10.15;;
37937;SDS011;23763;48.130;11.602;2023-05-14T02:11:28;12.63;;;10.23;;
37937;SDS011;23763;48.130;11.602;2023-05-14T02:13:54;10.90;;;9.77;;
37937;SDS011;23763;48.130;11.602;2023-05-14T02:16:20;13.38;;;10.75;;
37937;SDS011;23763;48.130;11.602;2023-05-14T02:18:45;15.75;;;10.57;;
37937;SDS011;23763;48.130;11.602;2023-05-14T02:21:11;13.23;;;10.55;;
37937;SDS011;23763;48.130;11.602;2023-05-14T02:23:36;13.85;;;10.68;;
37937;SDS011;23763;48.130;11.602;2023-05-14T02:26:02;15.40;;;10.48;;
37937;SDS011;23763;48.130;11.602;2023-05-14T02:28:27;13.65;;;10.90;;
37937;SDS011;23763;48.130;11.602;2023-05-14T02:30:59;14.93;;;11.52;;
37937;SDS011;23763;48.130;11.602;2023-05-14T02:33:25;13.55;;;11.52;;
37937;SDS011;23763;48.130;11.602;2023-05-14T02:35:51;15.00;;;12.07;;
37937;SDS011;23763;48.130;11.602;2023-05-14T02:38:17;15.35;;;11.75;;
37937;SDS011;23763;48.130;11.602;2023-05-14T02:40:43;15.75;;;11.75;;
37937;SDS011;23763;48.130;11.602;2023-05-14T02:43:08;16.33;;;13.27;;
37937;SDS011;23763;48.130;11.602;2023-05-14T02:45:34;16.45;;;12.90;;
37937;SDS011;23763;48.130;11.602;2023-05-14T02:48:00;15.57;;;13.15;;
37937;SDS011;23763;48.130;11.602;2023-05-14T02:50:25;15.30;;;12.60;;
37937;SDS011;23763;48.130;11.602;2023-05-14T02:52:51;15.38;;;12.70;;
37937;SDS011;23763;48.130;11.602;2023-05-14T02:55:16;16.60;;;13.38;;
37937;SDS011;23763;48.130;11.602;2023-05-14T02:57:42;17.38;;;12.43;;
37937;SDS011;23763;48.130;11.602;2023-05-14T03:00:08;18.23;;;13.25;;
37937;SDS011;23763;48.130;11.602;2023-05-14T03:02:34;17.80;;;13.18;;
37937;SDS011;23763;48.130;11.602;2023-05-14T03:04:59;16.17;;;13.02;;
37937;SDS011;23763;48.130;11.602;2023-05-14T03:07:25;16.80;;;12.68;;
37937;SDS011;23763;48.130;11.602;2023-05-14T03:09:51;16.17;;;12.15;;
37937;SDS011;23763;48.130;11.602;2023-05-14T03:12:17;16.08;;;12.85;;
37937;SDS011;23763;48.130;11.602;2023-05-14T03:14:42;14.30;;;12.30;;
37937;SDS011;23763;48.130;11.602;2023-05-14T03:17:08;14.13;;;12.25;;
37937;SDS011;23763;48.130;11.602;2023-05-14T03:19:34;15.13;;;11.93;;
37937;SDS011;23763;48.130;11.602;2023-05-14T03:21:59;14.45;;;12.63;;
37937;SDS011;23763;48.130;11.602;2023-05-14T03:24:25;17.10;;;12.50;;
37937;SDS011;23763;48.130;11.602;2023-05-14T03:26:50;15.35;;;11.82;;
37937;SDS011;23763;48.130;11.602;2023-05-14T03:29:17;13.93;;;12.43;;
37937;SDS011;23763;48.130;11.602;2023-05-14T03:31:42;14.65;;;11.13;;
37937;SDS011;23763;48.130;11.602;2023-05-14T03:34:09;17.05;;;12.07;;
37937;SDS011;23763;48.130;11.602;2023-05-14T03:36:35;16.60;;;12.38;;
37937;SDS011;23763;48.130;11.602;2023-05-14T03:39:02;13.95;;;12.07;;
37937;SDS011;23763;48.130;11.602;2023-05-14T03:41:30;14.38;;;11.32;;
37937;SDS011;23763;48.130;11.602;2023-05-14T03:43:56;13.52;;;11.82;;
37937;SDS011;23763;48.130;11.602;2023-05-14T03:46:22;14.02;;;11.93;;
37937;SDS011;23763;48.130;11.602;2023-05-14T03:48:47;16.10;;;13.00;;
37937;SDS011;23763;48.130;11.602;2023-05-14T03:51:13;18.20;;;12.55;;
37937;SDS011;23763;48.130;11.602;2023-05-14T03:53:39;15.38;;;12.05;;
37937;SDS011;23763;48.130;11.602;2023-05-14T03:56:05;17.92;;;12.48;;
37937;SDS011;23763;48.130;11.602;2023-05-14T03:58:31;15.13;;;11.73;;
37937;SDS011;23763;48.130;11.602;2023-05-14T04:00:56;16.33;;;12.25;;
37937;SDS011;23763;48.130;11.602;2023-05-14T04:03:22;14.77;;;12.00;;
37937;SDS011;23763;48.130;11.602;2023-05-14T04:05:47;16.58;;;11.48;;
37937;SDS011;23763;48.130;11.602;2023-05-14T04:08:15;18.98;;;11.98;;
37937;SDS011;23763;48.130;11.602;2023-05-14T04:10:41;13.48;;;11.60;;
37937;SDS011;23763;48.130;11.602;2023-05-14T04:13:07;14.73;;;11.50;;
37937;SDS011;23763;48.130;11.602;2023-05-14T04:15:32;16.75;;;13.00;;
37937;SDS011;23763;48.130;11.602;2023-05-14T04:17:59;17.30;;;12.73;;
37937;SDS011;23763;48.130;11.602;2023-05-14T04:20:25;16.83;;;12.48;;
37937;SDS011;23763;48.130;11.602;2023-05-14T04:22:51;17.70;;;13.02;;
37937;SDS011;23763;48.130;11.602;2023-05-14T04:25:17;17.05;;;13.90;;
37937;SDS011;23763;48.130;11.602;2023-05-14T04:27:43;18.48;;;13.27;;
37937;SDS011;23763;48.130;11.602;2023-05-14T04:30:10;16.83;;;13.00;;
37937;SDS011;23763;48.130;11.602;2023-05-14T04:32:36;19.45;;;14.02;;
37937;SDS011;23763;48.130;11.602;2023-05-14T04:35:02;18.95;;;14.05;;
37937;SDS011;23763;48.130;11.602;2023-05-14T04:37:28;18.65;;;13.98;;
37937;SDS011;23763;48.130;11.602;2023-05-14T04:39:55;18.40;;;13.75;;
37937;SDS011;23763;48.130;11.602;2023-05-14T04:42:20;18.88;;;14.20;;
37937;SDS011;23763;48.130;11.602;2023-05-14T04:44:46;20.80;;;14.43;;
37937;SDS011;23763;48.130;11.602;2023-05-14T04:47:12;17.70;;;13.55;;
37937;SDS011;23763;48.130;11.602;2023-05-14T04:49:38;19.13;;;14.10;;
37937;SDS011;23763;48.130;11.602;2023-05-14T04:52:03;22.83;;;13.55;;
37937;SDS011;23763;48.130;11.602;2023-05-14T04:54:30;20.00;;;13.63;;
37937;SDS011;23763;48.130;11.602;2023-05-14T04:56:55;20.50;;;13.32;;
37937;SDS011;23763;48.130;11.602;2023-05-14T04:59:21;18.67;;;14.25;;
37937;SDS011;23763;48.130;11.602;2023-05-14T05:01:47;18.73;;;14.25;;
37937;SDS011;23763;48.130;11.602;2023-05-14T05:04:12;20.27;;;14.43;;
37937;SDS011;23763;48.130;11.602;2023-05-14T05:06:38;20.70;;;15.13;;
37937;SDS011;23763;48.130;11.602;2023-05-14T05:09:03;23.77;;;15.43;;
37937;SDS011;23763;48.130;11.602;2023-05-14T05:11:29;22.63;;;14.85;;
37937;SDS011;23763;48.130;11.602;2023-05-14T05:13:55;18.30;;;14.02;;
37937;SDS011;23763;48.130;11.602;2023-05-14T05:16:20;21.92;;;14.65;;
37937;SDS011;23763;48.130;11.602;2023-05-14T05:18:46;20.38;;;15.15;;
37937;SDS011;23763;48.130;11.602;2023-05-14T05:21:12;18.85;;;14.60;;
37937;SDS011;23763;48.130;11.602;2023-05-14T05:23:37;19.73;;;15.43;;
37937;SDS011;23763;48.130;11.602;2023-05-14T05:26:03;22.02;;;15.07;;
37937;SDS011;23763;48.130;11.602;2023-05-14T05:28:29;22.77;;;15.65;;
37937;SDS011;23763;48.130;11.602;2023-05-14T05:30:54;21.25;;;14.70;;
37937;SDS011;23763;48.130;11.602;2023-05-14T05:33:20;20.17;;;15.10;;
37937;SDS011;23763;48.130;11.602;2023-05-14T05:35:46;21.67;;;15.48;;
37937;SDS011;23763;48.130;11.602;2023-05-14T05:38:12;20.00;;;15.52;;
37937;SDS011;23763;48.130;11.602;2023-05-14T05:40:39;20.80;;;15.50;;
37937;SDS011;23763;48.130;11.602;2023-05-14T05:43:05;19.60;;;14.52;;
37937;SDS011;23763;48.130;11.602;2023-05-14T05:45:30;18.50;;;14.25;;
37937;SDS011;23763;48.130;11.602;2023-05-14T05:47:56;22.05;;;15.45;;
37937;SDS011;23763;48.130;11.602;2023-05-14T05:50:22;20.05;;;15.07;;
37937;SDS011;23763;48.130;11.602;2023-05-14T05:52:48;19.35;;;14.48;;
37937;SDS011;23763;48.130;11.602;2023-05-14T05:55:13;19.33;;;15.10;;
37937;SDS011;23763;48.130;11.602;2023-05-14T05:57:39;21.55;;;14.20;;
37937;SDS011;23763;48.130;11.602;2023-05-14T06:00:05;21.35;;;14.13;;
37937;SDS011;23763;48.130;11.602;2023-05-14T06:02:37;20.52;;;15.20;;
37937;SDS011;23763;48.130;11.602;2023-05-14T06:05:03;22.42;;;14.68;;
37937;SDS011;23763;48.130;11.602;2023-05-14T06:07:30;23.25;;;15.73;;
37937;SDS011;23763;48.130;11.602;2023-05-14T06:09:55;19.20;;;14.65;;
37937;SDS011;23763;48.130;11.602;2023-05-14T06:12:21;21.30;;;14.75;;
37937;SDS011;23763;48.130;11.602;2023-05-14T06:14:46;19.73;;;16.42;;
37937;SDS011;23763;48.130;11.602;2023-05-14T06:17:12;19.55;;;14.85;;
37937;SDS011;23763;48.130;11.602;2023-05-14T06:19:37;19.33;;;15.10;;
37937;SDS011;23763;48.130;11.602;2023-05-14T06:22:03;18.92;;;15.18;;
37937;SDS011;23763;48.130;11.602;2023-05-14T06:24:29;23.05;;;15.13;;
37937;SDS011;23763;48.130;11.602;2023-05-14T06:26:54;20.35;;;15.00;;
37937;SDS011;23763;48.130;11.602;2023-05-14T06:29:20;22.02;;;14.57;;
37937;SDS011;23763;48.130;11.602;2023-05-14T06:31:45;20.25;;;14.98;;
37937;SDS011;23763;48.130;11.602;2023-05-14T06:34:11;22.02;;;15.07;;
37937;SDS011;23763;48.130;11.602;2023-05-14T06:36:37;20.98;;;15.27;;
37937;SDS011;23763;48.130;11.602;2023-05-14T06:39:02;21.20;;;14.63;;
37937;SDS011;23763;48.130;11.602;2023-05-14T06:41:28;21.98;;;15.63;;
37937;SDS011;23763;48.130;11.602;2023-05-14T06:43:53;19.98;;;14.48;;
37937;SDS011;23763;48.130;11.602;2023-05-14T06:46:19;19.05;;;14.43;;
37937;SDS011;23763;48.130;11.602;2023-05-14T06:48:45;20.08;;;14.63;;
37937;SDS011;23763;48.130;11.602;2023-05-14T06:51:11;20.33;;;14.75;;
37937;SDS011;23763;48.130;11.602;2023-05-14T06:53:37;20.45;;;14.82;;
37937;SDS011;23763;48.130;11.602;2023-05-14T06:56:03;19.42;;;14.38;;
37937;SDS011;23763;48.130;11.602;2023-05-14T06:58:29;20.17;;;15.05;;
37937;SDS011;23763;48.130;11.602;2023-05-14T07:00:55;20.45;;;15.40;;
37937;SDS011;23763;48.130;11.602;2023-05-14T07:03:20;20.90;;;16.10;;
37937;SDS011;23763;48.130;11.602;2023-05-14T07:05:46;22.30;;;16.50;;
37937;SDS011;23763;48.130;11.602;2023-05-14T07:08:12;19.48;;;14.68;;
37937;SDS011;23763;48.130;11.602;2023-05-14T07:10:38;20.08;;;15.48;;
37937;SDS011;23763;48.130;11.602;2023-05-14T07:13:04;22.10;;;15.65;;
37937;SDS011;23763;48.130;11.602;2023-05-14T07:15:30;24.60;;;15.63;;
37937;SDS011;23763;48.130;11.602;2023-05-14T07:17:55;19.48;;;14.23;;
37937;SDS011;23763;48.130;11.602;2023-05-14T07:20:21;18.90;;;14.65;;
37937;SDS011;23763;48.130;11.602;2023-05-14T07:22:51;18.17;;;14.48;;
37937;SDS011;23763;48.130;11.602;2023-05-14T07:25:17;23.65;;;15.98;;
37937;SDS011;23763;48.130;11.602;2023-05-14T07:27:42;18.10;;;14.90;;
37937;SDS011;23763;48.130;11.602;2023-05-14T07:30:08;19.00;;;14.88;;
37937;SDS011;23763;48.130;11.602;2023-05-14T07:32:34;17.88;;;14.20;;
37937;SDS011;23763;48.130;11.602;2023-05-14T07:35:00;19.65;;;13.93;;
37937;SDS011;23763;48.130;11.602;2023-05-14T07:37:25;17.50;;;14.10;;
37937;SDS011;23763;48.130;11.602;2023-05-14T07:39:51;22.85;;;14.93;;
37937;SDS011;23763;48.130;11.602;2023-05-14T07:42:17;18.23;;;13.65;;
37937;SDS011;23763;48.130;11.602;2023-05-14T07:44:43;18.55;;;14.20;;
37937;SDS011;23763;48.130;11.602;2023-05-14T07:47:08;17.00;;;13.60;;
37937;SDS011;23763;48.130;11.602;2023-05-14T07:49:34;16.55;;;12.50;;
37937;SDS011;23763;48.130;11.602;2023-05-14T07:52:00;19.10;;;13.02;;
37937;SDS011;23763;48.130;11.602;2023-05-14T07:54:26;16.65;;;13.23;;
37937;SDS011;23763;48.130;11.602;2023-05-14T07:56:51;14.98;;;12.57;;
37937;SDS011;23763;48.130;11.602;2023-05-14T07:59:17;15.52;;;12.93;;
37937;SDS011;23763;48.130;11.602;2023-05-14T08:01:43;16.42;;;13.05;;
37937;SDS011;23763;48.130;11.602;2023-05-14T08:04:08;15.85;;;12.32;;
37937;SDS011;23763;48.130;11.602;2023-05-14T08:06:35;16.65;;;13.52;;
37937;SDS011;23763;48.130;11.602;2023-05-14T08:09:01;16.88;;;12.80;;
37937;SDS011;23763;48.130;11.602;2023-05-14T08:11:29;15.70;;;13.05;;
37937;SDS011;23763;48.130;11.602;2023-05-14T08:13:55;15.63;;;12.13;;
37937;SDS011;23763;48.130;11.602;2023-05-14T08:16:21;13.10;;;11.70;;
37937;SDS011;23763;48.130;11.602;2023-05-14T08:18:47;16.55;;;12.77;;
37937;SDS011;23763;48.130;11.602;2023-05-14T08:21:13;15.55;;;12.27;;
37937;SDS011;23763;48.130;11.602;2023-05-14T08:23:39;15.50;;;12.18;;
37937;SDS011;23763;48.130;11.602;2023-05-14T08:26:04;15.68;;;12.30;;
37937;SDS011;23763;48.130;11.602;2023-05-14T08:28:30;14.40;;;11.68;;
37937;SDS011;23763;48.130;11.602;2023-05-14T08:30:56;15.88;;;11.32;;
37937;SDS011;23763;48.130;11.602;2023-05-14T08:33:21;13.38;;;10.65;;
37937;SDS011;23763;48.130;11.602;2023-05-14T08:35:49;17.27;;;11.05;;
37937;SDS011;23763;48.130;11.602;2023-05-14T08:38:16;15.10;;;11.57;;
37937;SDS011;23763;48.130;11.602;2023-05-14T08:40:46;11.77;;;10.23;;
37937;SDS011;23763;48.130;11.602;2023-05-14T08:43:13;13.82;;;11.23;;
37937;SDS011;23763;48.130;11.602;2023-05-14T08:45:43;13.32;;;11.25;;
37937;SDS011;23763;48.130;11.602;2023-05-14T08:48:11;12.70;;;10.48;;
37937;SDS011;23763;48.130;11.602;2023-05-14T08:50:42;13.73;;;11.35;;
37937;SDS011;23763;48.130;11.602;2023-05-14T08:53:08;14.60;;;11.00;;
37937;SDS011;23763;48.130;11.602;2023-05-14T08:55:33;16.00;;;11.60;;
37937;SDS011;23763;48.130;11.602;2023-05-14T08:58:01;16.05;;;11.15;;
37937;SDS011;23763;48.130;11.602;2023-05-14T09:00:26;16.50;;;10.75;;
37937;SDS011;23763;48.130;11.602;2023-05-14T09:02:52;13.52;;;11.52;;
37937;SDS011;23763;48.130;11.602;2023-05-14T09:05:19;13.15;;;11.77;;
37937;SDS011;23763;48.130;11.602;2023-05-14T09:07:46;15.57;;;12.25;;
37937;SDS011;23763;48.130;11.602;2023-05-14T09:10:11;15.50;;;11.93;;
37937;SDS011;23763;48.130;11.602;2023-05-14T09:12:39;12.73;;;11.25;;
37937;SDS011;23763;48.130;11.602;2023-05-14T09:15:05;14.52;;;12.55;;
37937;SDS011;23763;48.130;11.602;2023-05-14T09:17:31;16.55;;;11.68;;
37937;SDS011;23763;48.130;11.602;2023-05-14T09:19:58;16.33;;;13.00;;
37937;SDS011;23763;48.130;11.602;2023-05-14T09:22:24;16.10;;;11.45;;
37937;SDS011;23763;48.130;11.602;2023-05-14T09:25:06;11.68;;;10.32;;
37937;SDS011;23763;48.130;11.602;2023-05-14T09:27:33;14.63;;;10.40;;
37937;SDS011;23763;48.130;11.602;2023-05-14T09:30:04;13.80;;;10.65;;
37937;SDS011;23763;48.130;11.602;2023-05-14T09:32:35;11.98;;;10.15;;
37937;SDS011;23763;48.130;11.602;2023-05-14T09:35:15;11.73;;;8.50;;
37937;SDS011;23763;48.130;11.602;2023-05-14T09:37:46;10.77;;;9.65;;
37937;SDS011;23763;48.130;11.602;2023-05-14T09:40:13;12.68;;;10.25;;
37937;SDS011;23763;48.130;11.602;2023-05-14T09:42:40;12.75;;;9.77;;
37937;SDS011;23763;48.130;11.602;2023-05-14T09:45:06;11.90;;;9.30;;
37937;SDS011;23763;48.130;11.602;2023-05-14T09:47:35;11.20;;;8.98;;
37937;SDS011;23763;48.130;11.602;2023-05-14T09:50:04;11.50;;;9.88;;
37937;SDS011;23763;48.130;11.602;2023-05-14T09:52:31;12.63;;;9.02;;
37937;SDS011;23763;48.130;11.602;2023-05-14T09:54:57;11.02;;;9.68;;
37937;SDS011;23763;48.130;11.602;2023-05-14T09:57:23;10.30;;;9.18;;
37937;SDS011;23763;48.130;11.602;2023-05-14T09:59:49;9.40;;;8.50;;
37937;SDS011;23763;48.130;11.602;2023-05-14T10:02:36;9.63;;;8.68;;
37937;SDS011;23763;48.130;11.602;2023-05-14T10:05:02;9.95;;;8.50;;
37937;SDS011;23763;48.130;11.602;2023-05-14T10:07:38;9.88;;;8.23;;
37937;SDS011;23763;48.130;11.602;2023-05-14T10:10:07;9.30;;;8.40;;
37937;SDS011;23763;48.130;11.602;2023-05-14T10:12:37;9.73;;;8.45;;
37937;SDS011;23763;48.130;11.602;2023-05-14T10:15:05;9.00;;;7.70;;
37937;SDS011;23763;48.130;11.602;2023-05-14T10:17:38;9.30;;;8.20;;
37937;SDS011;23763;48.130;11.602;2023-05-14T10:20:07;9.82;;;8.82;;
37937;SDS011;23763;48.130;11.602;2023-05-14T10:22:35;9.77;;;8.10;;
37937;SDS011;23763;48.130;11.602;2023-05-14T10:25:02;9.65;;;8.10;;
37937;SDS011;23763;48.130;11.602;2023-05-14T10:27:29;8.77;;;7.53;;
37937;SDS011;23763;48.130;11.602;2023-05-14T10:29:55;10.43;;;8.52;;
37937;SDS011;23763;48.130;11.602;2023-05-14T10:32:21;10.32;;;8.63;;
37937;SDS011;23763;48.130;11.602;2023-05-14T10:34:49;9.10;;;8.13;;
37937;SDS011;23763;48.130;11.602;2023-05-14T10:39:49;9.60;;;8.00;;
37937;SDS011;23763;48.130;11.602;2023-05-14T10:42:22;8.95;;;7.72;;
37937;SDS011;23763;48.130;11.602;2023-05-14T10:45:07;8.18;;;7.38;;
37937;SDS011;23763;48.130;11.602;2023-05-14T10:47:43;10.40;;;8.35;;
37937;SDS011;23763;48.130;11.602;2023-05-14T10:50:11;7.97;;;7.15;;
37937;SDS011;23763;48.130;11.602;2023-05-14T10:52:41;7.38;;;6.60;;
37937;SDS011;23763;48.130;11.602;2023-05-14T10:55:08;10.13;;;8.07;;
37937;SDS011;23763;48.130;11.602;2023-05-14T10:57:38;9.75;;;7.22;;
37937;SDS011;23763;48.130;11.602;2023-05-14T11:00:07;7.70;;;6.85;;
37937;SDS011;23763;48.130;11.602;2023-05-14T11:02:34;7.70;;;6.90;;
37937;SDS011;23763;48.130;11.602;2023-05-14T11:05:02;8.50;;;7.70;;
37937;SDS011;23763;48.130;11.602;2023-05-14T11:09:59;7.80;;;7.10;;
37937;SDS011;23763;48.130;11.602;2023-05-14T11:12:29;8.27;;;7.32;;
37937;SDS011;23763;48.130;11.602;2023-05-14T11:14:56;8.82;;;7.43;;
37937;SDS011;23763;48.130;11.602;2023-05-14T11:17:24;8.48;;;7.57;;
37937;SDS011;23763;48.130;11.602;2023-05-14T11:19:50;6.93;;;5.97;;
37937;SDS011;23763;48.130;11.602;2023-05-14T11:22:16;7.88;;;7.07;;
37937;SDS011;23763;48.130;11.602;2023-05-14T11:24:41;8.93;;;6.65;;
37937;SDS011;23763;48.130;11.602;2023-05-14T11:27:07;10.57;;;7.38;;
37937;SDS011;23763;48.130;11.602;2023-05-14T11:29:34;7.28;;;6.57;;
37937;SDS011;23763;48.130;11.602;2023-05-14T11:32:01;8.85;;;6.55;;
37937;SDS011;23763;48.130;11.602;2023-05-14T11:34:30;7.13;;;5.88;;
37937;SDS011;23763;48.130;11.602;2023-05-14T11:36:57;6.85;;;6.15;;
37937;SDS011;23763;48.130;11.602;2023-05-14T11:39:23;7.30;;;6.60;;
37937;SDS011;23763;48.130;11.602;2023-05-14T11:41:49;7.10;;;6.40;;
37937;SDS011;23763;48.130;11.602;2023-05-14T11:44:14;8.43;;;6.65;;
37937;SDS011;23763;48.130;11.602;2023-05-14T11:46:41;8.23;;;6.40;;
37937;SDS011;23763;48.130;11.602;2023-05-14T11:49:20;7.28;;;6.53;;
37937;SDS011;23763;48.130;11.602;2023-05-14T11:51:46;6.78;;;6.10;;
37937;SDS011;23763;48.130;11.602;2023-05-14T11:54:12;7.05;;;6.35;;
37937;SDS011;23763;48.130;11.602;2023-05-14T11:56:38;7.85;;;6.88;;
37937;SDS011;23763;48.130;11.602;2023-05-14T11:59:04;6.47;;;5.85;;
37937;SDS011;23763;48.130;11.602;2023-05-14T12:01:34;6.55;;;5.95;;
37937;SDS011;23763;48.130;11.602;2023-05-14T12:04:03;6.63;;;5.75;;
37937;SDS011;23763;48.130;11.602;2023-05-14T12:06:29;6.45;;;5.82;;
37937;SDS011;23763;48.130;11.602;2023-05-14T12:08:56;6.03;;;5.47;;
37937;SDS011;23763;48.130;11.602;2023-05-14T12:11:22;6.35;;;5.70;;
37937;SDS011;23763;48.130;11.602;2023-05-14T12:13:47;6.88;;;6.15;;
37937;SDS011;23763;48.130;11.602;2023-05-14T12:16:13;8.43;;;6.40;;
37937;SDS011;23763;48.130;11.602;2023-05-14T12:18:38;6.20;;;5.50;;
37937;SDS011;23763;48.130;11.602;2023-05-14T12:21:13;6.45;;;5.85;;
37937;SDS011;23763;48.130;11.602;2023-05-14T12:23:38;6.57;;;5.72;;
37937;SDS011;23763;48.130;11.602;2023-05-14T12:26:05;6.57;;;5.60;;
37937;SDS011;23763;48.130;11.602;2023-05-14T12:28:33;6.30;;;5.70;;
37937;SDS011;23763;48.130;11.602;2023-05-14T12:31:00;5.50;;;5.00;;
37937;SDS011;23763;48.130;11.602;2023-05-14T12:33:26;5.55;;;5.00;;
37937;SDS011;23763;48.130;11.602;2023-05-14T12:35:52;5.80;;;5.25;;
37937;SDS011;23763;48.130;11.602;2023-05-14T12:38:21;5.70;;;5.18;;
37937;SDS011;23763;48.130;11.602;2023-05-14T12:40:46;11.88;;;8.93;;
37937;SDS011;23763;48.130;11.602;2023-05-14T12:43:12;7.20;;;5.93;;
37937;SDS011;23763;48.130;11.602;2023-05-14T12:45:38;7.10;;;6.40;;
37937;SDS011;23763;48.130;11.602;2023-05-14T12:48:04;6.88;;;5.90;;
37937;SDS011;23763;48.130;11.602;2023-05-14T12:50:30;8.40;;;6.32;;
37937;SDS011;23763;48.130;11.602;2023-05-14T12:52:55;7.07;;;6.38;;
37937;SDS011;23763;48.130;11.602;2023-05-14T12:55:21;6.95;;;6.18;;
37937;SDS011;23763;48.130;11.602;2023-05-14T12:57:47;6.88;;;6.28;;
37937;SDS011;23763;48.130;11.602;2023-05-14T13:00:13;7.57;;;6.63;;
37937;SDS011;23763;48.130;11.602;2023-05-14T13:02:39;7.05;;;5.93;;
37937;SDS011;23763;48.130;11.602;2023-05-14T13:05:05;8.93;;;7.53;;
37937;SDS011;23763;48.130;11.602;2023-05-14T13:07:31;6.85;;;6.03;;
37937;SDS011;23763;48.130;11.602;2023-05-14T13:09:56;11.30;;;6.68;;
37937;SDS011;23763;48.130;11.602;2023-05-14T13:12:22;6.63;;;5.95;;
37937;SDS011;23763;48.130;11.602;2023-05-14T13:14:48;6.22;;;5.35;;
37937;SDS011;23763;48.130;11.602;2023-05-14T13:17:14;17.98;;;12.18;;
37937;SDS011;23763;48.130;11.602;2023-05-14T13:19:40;6.75;;;6.15;;
37937;SDS011;23763;48.130;11.602;2023-05-14T13:22:06;7.38;;;6.60;;
37937;SDS011;23763;48.130;11.602;2023-05-14T13:24:32;5.80;;;5.20;;
37937;SDS011;23763;48.130;11.602;2023-05-14T13:26:59;6.32;;;5.72;;
37937;SDS011;23763;48.130;11.602;2023-05-14T13:29:25;5.95;;;5.35;;
37937;SDS011;23763;48.130;11.602;2023-05-14T13:31:53;6.70;;;5.60;;
37937;SDS011;23763;48.130;11.602;2023-05-14T13:34:20;5.80;;;5.30;;
37937;SDS011;23763;48.130;11.602;2023-05-14T13:36:45;5.53;;;4.97;;
37937;SDS011;23763;48.130;11.602;2023-05-14T13:39:13;5.85;;;5.25;;
37937;SDS011;23763;48.130;11.602;2023-05-14T13:41:38;5.90;;;5.30;;
37937;SDS011;23763;48.130;11.602;2023-05-14T13:44:04;5.20;;;4.70;;
37937;SDS011;23763;48.130;11.602;2023-05-14T13:46:30;6.88;;;4.90;;
37937;SDS011;23763;48.130;11.602;2023-05-14T13:48:55;6.20;;;5.60;;
37937;SDS011;23763;48.130;11.602;2023-05-14T13:51:21;6.28;;;5.78;;
37937;SDS011;23763;48.130;11.602;2023-05-14T13:53:47;6.10;;;5.50;;
37937;SDS011;23763;48.130;11.602;2023-05-14T13:56:13;5.95;;;5.25;;
37937;SDS011;23763;48.130;11.602;2023-05-14T13:58:38;5.60;;;5.10;;
37937;SDS011;23763;48.130;11.602;2023-05-14T14:01:05;4.30;;;3.90;;
37937;SDS011;23763;48.130;11.602;2023-05-14T14:03:31;3.72;;;3.42;;
37937;SDS011;23763;48.130;11.602;2023-05-14T14:05:57;4.30;;;3.90;;
37937;SDS011;23763;48.130;11.602;2023-05-14T14:08:22;4.35;;;3.95;;
37937;SDS011;23763;48.130;11.602;2023-05-14T14:10:48;3.97;;;3.65;;
37937;SDS011;23763;48.130;11.602;2023-05-14T14:13:14;4.13;;;3.72;;
37937;SDS011;23763;48.130;11.602;2023-05-14T14:15:39;4.05;;;3.50;;
37937;SDS011;23763;48.130;11.602;2023-05-14T14:18:05;4.40;;;4.00;;